createdAt,value
2023-10-10T00:00:56.696Z,13.93
2023-10-10T00:03:24.458Z,12.18
2023-10-10T00:05:51.113Z,15.70
2023-10-10T00:08:21.241Z,12.98
2023-10-10T00:10:52.172Z,14.73
2023-10-10T00:13:20.480Z,13.75
2023-10-10T00:15:52.356Z,16.17
2023-10-10T00:18:20.692Z,15.75
2023-10-10T00:21:05.774Z,11.15
2023-10-10T00:23:39.248Z,16.83
2023-10-10T00:26:06.688Z,18.50
2023-10-10T00:28:35.617Z,14.68
2023-10-10T00:31:06.195Z,12.52
2023-10-10T00:33:32.771Z,13.80
2023-10-10T00:36:00.461Z,12.85
2023-10-10T00:38:27.602Z,20.45
2023-10-10T00:40:55.986Z,16.25
2023-10-10T00:43:25.103Z,13.57
2023-10-10T00:45:58.212Z,11.88
2023-10-10T00:48:30.381Z,11.80
2023-10-10T00:51:11.695Z,16.88
2023-10-10T00:53:46.233Z,20.05
2023-10-10T00:56:15.196Z,16.88
2023-10-10T00:58:41.860Z,20.27
2023-10-10T01:01:15.792Z,19.55
2023-10-10T01:03:47.272Z,16.02
2023-10-10T01:06:26.024Z,16.45
2023-10-10T01:09:00.385Z,20.17
2023-10-10T01:11:27.106Z,21.73
2023-10-10T01:13:53.788Z,18.10
2023-10-10T01:16:24.655Z,21.25
2023-10-10T01:18:53.222Z,18.75
2023-10-10T01:21:31.400Z,19.23
2023-10-10T01:24:02.425Z,15.05
2023-10-10T01:26:37.678Z,18.45
2023-10-10T01:29:15.681Z,20.23
2023-10-10T01:31:43.384Z,19.83
2023-10-10T01:34:10.976Z,23.20
2023-10-10T01:36:39.171Z,27.85
2023-10-10T01:39:27.858Z,24.50
2023-10-10T01:41:54.287Z,23.58
2023-10-10T01:44:23.652Z,25.73
2023-10-10T01:46:53.840Z,21.75
2023-10-10T01:49:21.938Z,27.08
2023-10-10T01:51:59.862Z,19.20
2023-10-10T01:54:35.739Z,20.17
2023-10-10T01:57:04.806Z,22.50
2023-10-10T01:59:36.773Z,21.63
2023-10-10T02:02:10.052Z,19.90
2023-10-10T02:04:37.457Z,30.27
2023-10-10T02:07:07.288Z,19.02
2023-10-10T02:09:39.310Z,19.08
2023-10-10T02:12:13.275Z,17.85
2023-10-10T02:14:44.126Z,22.33
2023-10-10T02:17:25.142Z,23.13
2023-10-10T02:19:55.480Z,22.00
2023-10-10T02:22:34.568Z,21.27
2023-10-10T02:25:21.004Z,22.60
2023-10-10T02:27:56.009Z,25.35
2023-10-10T02:30:36.627Z,22.08
2023-10-10T02:33:20.555Z,22.85
2023-10-10T02:35:55.201Z,29.45
2023-10-10T02:38:33.537Z,23.77
2023-10-10T02:41:26.707Z,21.25
2023-10-10T02:44:18.365Z,24.95
2023-10-10T02:46:48.944Z,24.08
2023-10-10T02:49:24.491Z,23.80
2023-10-10T02:51:56.309Z,22.80
2023-10-10T02:54:27.992Z,25.38
2023-10-10T02:57:26.179Z,23.00
2023-10-10T03:00:00.599Z,20.77
2023-10-10T03:02:53.907Z,25.17
2023-10-10T03:05:44.810Z,21.92
2023-10-10T03:08:17.410Z,18.80
2023-10-10T03:10:48.238Z,19.45
2023-10-10T03:13:35.226Z,21.92
2023-10-10T03:16:33.524Z,20.20
2023-10-10T03:19:02.622Z,23.63
2023-10-10T03:21:39.029Z,20.77
2023-10-10T03:24:16.499Z,18.85
2023-10-10T03:27:03.227Z,25.23
2023-10-10T03:29:48.385Z,21.48
2023-10-10T03:32:21.064Z,17.90
2023-10-10T03:34:57.786Z,23.52
2023-10-10T03:37:27.918Z,22.20
2023-10-10T03:39:56.051Z,21.38
2023-10-10T03:42:41.920Z,21.35
2023-10-10T03:45:27.815Z,21.58
2023-10-10T03:48:13.028Z,24.48
2023-10-10T03:51:02.485Z,20.75
2023-10-10T03:53:47.810Z,23.75
2023-10-10T03:56:37.343Z,23.92
2023-10-10T03:59:23.846Z,24.17
2023-10-10T04:02:09.303Z,30.17
2023-10-10T04:04:54.786Z,25.27
2023-10-10T04:07:40.935Z,28.08
2023-10-10T04:10:28.174Z,29.55
2023-10-10T04:13:12.978Z,28.23
2023-10-10T04:15:57.848Z,29.05
2023-10-10T04:18:42.572Z,29.13
2023-10-10T04:21:30.921Z,28.25
2023-10-10T04:24:16.059Z,28.15
2023-10-10T04:27:01.281Z,36.45
2023-10-10T04:29:46.161Z,30.73
2023-10-10T04:32:31.189Z,45.95
2023-10-10T04:35:16.145Z,33.70
2023-10-10T04:38:01.086Z,33.88
2023-10-10T04:40:46.415Z,30.75
2023-10-10T04:43:31.352Z,41.88
2023-10-10T04:46:16.104Z,58.28
2023-10-10T04:49:01.065Z,40.78
2023-10-10T04:51:45.931Z,37.53
2023-10-10T04:54:30.762Z,56.53
2023-10-10T04:57:15.513Z,63.25
2023-10-10T05:00:00.412Z,49.30
2023-10-10T05:02:45.297Z,45.20
2023-10-10T05:05:30.467Z,35.20
2023-10-10T05:08:15.432Z,43.40
2023-10-10T05:11:00.425Z,40.88
2023-10-10T05:13:45.339Z,35.60
2023-10-10T05:16:30.133Z,34.80
2023-10-10T05:19:15.016Z,34.67
2023-10-10T05:21:59.835Z,36.20
2023-10-10T05:24:27.613Z,32.28
2023-10-10T05:26:57.829Z,36.90
2023-10-10T05:29:25.366Z,33.55
2023-10-10T05:31:57.613Z,35.13
2023-10-10T05:34:24.513Z,36.45
2023-10-10T05:36:51.185Z,34.60
2023-10-10T05:39:22.270Z,32.58
2023-10-10T05:41:49.226Z,31.90
2023-10-10T05:44:17.822Z,29.77
2023-10-10T05:46:44.889Z,24.30
2023-10-10T05:49:11.536Z,32.83
2023-10-10T05:51:38.030Z,29.92
2023-10-10T05:54:04.878Z,29.73
2023-10-10T05:56:31.664Z,29.17
2023-10-10T05:58:58.209Z,28.70
2023-10-10T06:01:24.868Z,31.02
2023-10-10T06:03:52.484Z,31.08
2023-10-10T06:06:19.640Z,32.17
2023-10-10T06:08:46.695Z,38.80
2023-10-10T06:11:17.141Z,33.75
2023-10-10T06:16:14.563Z,39.90
2023-10-10T06:18:46.247Z,33.60
2023-10-10T06:21:13.335Z,36.15
2023-10-10T06:23:43.115Z,34.40
2023-10-10T06:26:10.520Z,37.10
2023-10-10T06:28:37.408Z,41.33
2023-10-10T06:31:11.206Z,36.55
2023-10-10T06:33:42.450Z,32.25
2023-10-10T06:36:22.840Z,34.38
2023-10-10T06:39:05.242Z,28.15
2023-10-10T06:41:41.256Z,31.83
2023-10-10T06:44:26.849Z,33.53
2023-10-10T06:46:56.748Z,35.47
2023-10-10T06:49:23.529Z,25.45
2023-10-10T06:51:51.150Z,30.38
2023-10-10T06:54:28.974Z,26.85
2023-10-10T06:57:01.760Z,31.75
2023-10-10T06:59:29.366Z,27.45
2023-10-10T07:02:16.965Z,30.23
2023-10-10T07:04:43.415Z,27.77
2023-10-10T07:07:11.170Z,25.58
2023-10-10T07:09:38.494Z,28.65
2023-10-10T07:12:11.629Z,22.08
2023-10-10T07:14:42.017Z,30.35
2023-10-10T07:17:13.213Z,27.17
2023-10-10T07:20:00.267Z,27.83
2023-10-10T07:22:28.603Z,28.65
2023-10-10T07:25:08.116Z,25.13
2023-10-10T07:27:36.727Z,27.33
2023-10-10T07:30:24.730Z,25.48
2023-10-10T07:32:51.689Z,26.23
2023-10-10T07:35:26.311Z,30.35
2023-10-10T07:37:53.781Z,26.77
2023-10-10T07:40:21.597Z,24.75
2023-10-10T07:42:51.846Z,28.05
2023-10-10T07:45:27.709Z,24.85
2023-10-10T07:48:00.158Z,27.23
2023-10-10T07:50:36.385Z,26.77
2023-10-10T07:53:07.764Z,27.00
2023-10-10T07:55:54.658Z,22.48
2023-10-10T07:58:31.072Z,23.55
2023-10-10T08:01:11.090Z,24.77
2023-10-10T08:03:38.484Z,24.50
2023-10-10T08:06:09.856Z,26.77
2023-10-10T08:11:07.229Z,24.52
2023-10-10T08:13:34.127Z,22.98
2023-10-10T08:16:03.761Z,25.17
2023-10-10T08:18:42.783Z,22.45
2023-10-10T08:21:12.147Z,26.55
2023-10-10T08:23:44.091Z,23.98
2023-10-10T08:26:19.323Z,20.05
2023-10-10T08:28:47.327Z,25.10
2023-10-10T08:31:14.894Z,22.33
2023-10-10T08:33:46.126Z,24.95
2023-10-10T08:36:18.745Z,22.33
2023-10-10T08:38:45.158Z,27.77
2023-10-10T08:41:12.103Z,22.05
2023-10-10T08:43:46.505Z,23.63
2023-10-10T08:46:14.273Z,24.65
2023-10-10T08:48:42.644Z,30.20
2023-10-10T08:51:09.323Z,28.45
2023-10-10T08:53:39.632Z,22.50
2023-10-10T08:56:07.913Z,25.77
2023-10-10T08:58:37.081Z,24.65
2023-10-10T09:01:03.835Z,25.20
2023-10-10T09:03:35.886Z,26.63
2023-10-10T09:06:59.220Z,24.20
2023-10-10T09:09:59.083Z,26.30
2023-10-10T09:12:25.704Z,27.10
2023-10-10T09:14:52.545Z,33.45
2023-10-10T09:17:30.194Z,32.42
2023-10-10T09:19:58.223Z,29.65
2023-10-10T09:22:30.395Z,41.38
2023-10-10T09:24:56.958Z,33.67
2023-10-10T09:27:28.429Z,38.30
2023-10-10T09:29:57.336Z,36.28
2023-10-10T09:32:35.899Z,40.08
2023-10-10T09:35:02.579Z,42.67
2023-10-10T09:37:35.747Z,38.35
2023-10-10T09:40:08.562Z,32.90
2023-10-10T09:43:04.613Z,35.45
2023-10-10T09:45:53.772Z,35.83
2023-10-10T09:48:34.889Z,39.10
2023-10-10T09:51:16.776Z,38.70
2023-10-10T09:53:47.833Z,41.63
2023-10-10T09:56:22.378Z,38.72
2023-10-10T09:58:54.200Z,47.70
2023-10-10T10:01:25.375Z,36.70
2023-10-10T10:04:04.750Z,40.92
2023-10-10T10:07:06.729Z,46.05
2023-10-10T10:09:47.656Z,46.53
2023-10-10T10:12:42.800Z,46.90
2023-10-10T10:15:52.106Z,48.40
2023-10-10T10:18:28.491Z,40.97
2023-10-10T10:21:10.934Z,39.92
2023-10-10T10:23:46.688Z,39.88
2023-10-10T10:26:23.631Z,40.20
2023-10-10T10:28:59.014Z,37.83
2023-10-10T10:31:33.864Z,40.45
2023-10-10T10:34:17.735Z,39.15
2023-10-10T10:36:46.325Z,35.65
2023-10-10T10:39:20.317Z,43.00
2023-10-10T10:41:56.682Z,39.95
2023-10-10T10:44:56.582Z,37.08
2023-10-10T10:47:47.765Z,39.47
2023-10-10T10:50:44.245Z,43.00
2023-10-10T10:53:22.239Z,39.22
2023-10-10T10:56:27.765Z,43.40
2023-10-10T10:58:57.337Z,37.72
2023-10-10T11:01:30.212Z,36.63
2023-10-10T11:03:57.445Z,38.72
2023-10-10T11:06:27.490Z,45.67
2023-10-10T11:08:58.006Z,39.35
2023-10-10T11:11:28.179Z,34.42
2023-10-10T11:13:56.143Z,34.03
2023-10-10T11:16:37.633Z,27.48
2023-10-10T11:19:20.291Z,24.27
2023-10-10T11:21:54.887Z,24.15
2023-10-10T11:24:26.768Z,24.35
2023-10-10T11:27:08.328Z,23.52
2023-10-10T11:29:48.668Z,24.10
2023-10-10T11:32:17.276Z,25.60
2023-10-10T11:34:47.700Z,20.42
2023-10-10T11:37:25.453Z,25.83
2023-10-10T11:40:02.720Z,21.80
2023-10-10T11:42:29.121Z,18.17
2023-10-10T11:45:08.732Z,17.20
2023-10-10T11:47:45.954Z,15.30
2023-10-10T11:50:14.278Z,17.77
2023-10-10T11:53:08.900Z,15.45
2023-10-10T11:55:35.684Z,12.52
2023-10-10T11:58:09.073Z,20.65
2023-10-10T12:00:45.130Z,13.32
2023-10-10T12:03:20.540Z,11.52
2023-10-10T12:05:50.658Z,10.68
2023-10-10T12:08:24.268Z,10.82
2023-10-10T12:11:07.638Z,9.18
2023-10-10T12:13:34.779Z,13.57
2023-10-10T12:16:08.829Z,8.50
2023-10-10T12:18:36.347Z,9.48
2023-10-10T12:21:04.332Z,5.20
2023-10-10T12:23:32.686Z,8.88
2023-10-10T12:26:06.188Z,8.82
2023-10-10T12:28:32.677Z,7.85
2023-10-10T12:31:02.085Z,5.18
2023-10-10T12:33:28.782Z,4.68
2023-10-10T12:35:58.134Z,5.05
2023-10-10T12:38:24.980Z,8.50
2023-10-10T12:40:52.626Z,4.75
2023-10-10T12:43:20.346Z,4.80
2023-10-10T12:45:52.266Z,4.55
2023-10-10T12:48:22.125Z,5.38
2023-10-10T12:50:49.844Z,3.50
2023-10-10T12:53:16.800Z,6.65
2023-10-10T12:55:53.368Z,4.45
2023-10-10T12:58:21.457Z,5.55
2023-10-10T13:00:55.293Z,5.78
2023-10-10T13:03:28.871Z,8.77
2023-10-10T13:06:04.388Z,6.18
2023-10-10T13:09:01.632Z,4.20
2023-10-10T13:11:34.076Z,2.50
2023-10-10T13:14:10.410Z,4.57
2023-10-10T13:16:43.868Z,4.97
2023-10-10T13:19:15.160Z,5.07
2023-10-10T13:21:43.558Z,6.72
2023-10-10T13:24:15.241Z,2.83
2023-10-10T13:26:45.824Z,5.13
2023-10-10T13:29:12.982Z,6.70
2023-10-10T13:31:42.207Z,7.55
2023-10-10T13:34:08.727Z,5.30
2023-10-10T13:36:35.288Z,10.25
2023-10-10T13:39:07.050Z,5.13
2023-10-10T13:41:37.207Z,4.47
2023-10-10T13:44:04.670Z,2.60
2023-10-10T13:46:36.147Z,5.45
2023-10-10T13:49:09.963Z,4.57
2023-10-10T13:51:42.677Z,9.65
2023-10-10T13:54:09.347Z,6.30
2023-10-10T13:56:35.924Z,6.20
2023-10-10T13:59:02.954Z,6.82
2023-10-10T14:01:29.600Z,8.70
2023-10-10T14:04:14.970Z,4.20
2023-10-10T14:06:48.849Z,7.50
2023-10-10T14:10:00.179Z,5.00
2023-10-10T14:12:33.234Z,5.22
2023-10-10T14:15:00.650Z,7.85
2023-10-10T14:17:27.272Z,7.80
2023-10-10T14:19:53.890Z,6.95
2023-10-10T14:22:25.151Z,9.57
2023-10-10T14:24:53.676Z,7.25
2023-10-10T14:27:21.289Z,9.40
2023-10-10T14:29:49.078Z,8.63
2023-10-10T14:32:30.940Z,9.77
2023-10-10T14:35:04.039Z,10.85
2023-10-10T14:37:45.601Z,8.23
2023-10-10T14:40:19.506Z,9.05
2023-10-10T14:42:46.058Z,8.93
2023-10-10T14:45:13.880Z,12.32
2023-10-10T14:47:44.794Z,6.38
2023-10-10T14:50:13.854Z,8.82
2023-10-10T14:52:48.278Z,9.13
2023-10-10T14:55:28.636Z,16.48
2023-10-10T14:57:56.888Z,8.57
2023-10-10T15:00:29.362Z,7.45
2023-10-10T15:02:57.249Z,7.88
2023-10-10T15:05:27.886Z,14.23
2023-10-10T15:07:54.860Z,8.50
2023-10-10T15:10:28.262Z,11.52
2023-10-10T15:12:55.506Z,10.38
2023-10-10T15:15:23.813Z,7.47
2023-10-10T15:17:51.157Z,6.38
2023-10-10T15:20:17.869Z,10.52
2023-10-10T15:22:44.312Z,10.27
2023-10-10T15:25:11.896Z,10.43
2023-10-10T15:27:42.796Z,11.82
2023-10-10T15:30:10.457Z,12.35
2023-10-10T15:32:49.479Z,12.10
2023-10-10T15:35:18.046Z,13.85
2023-10-10T15:37:44.689Z,15.15
2023-10-10T15:40:21.939Z,12.73
2023-10-10T15:42:52.746Z,13.35
2023-10-10T15:45:22.424Z,15.23
2023-10-10T15:47:56.091Z,16.00
2023-10-10T15:50:23.253Z,20.73
2023-10-10T15:52:50.206Z,20.27
2023-10-10T15:55:24.083Z,20.23
2023-10-10T15:57:53.575Z,25.00
2023-10-10T16:00:33.579Z,22.67
2023-10-10T16:03:01.343Z,24.40
2023-10-10T16:05:27.893Z,29.60
2023-10-10T16:08:08.485Z,24.77
2023-10-10T16:10:38.898Z,26.20
2023-10-10T16:13:08.469Z,31.10
2023-10-10T16:15:35.052Z,25.60
2023-10-10T16:18:01.682Z,24.17
2023-10-10T16:20:28.704Z,25.50
2023-10-10T16:22:55.167Z,35.15
2023-10-10T16:25:24.145Z,30.88
2023-10-10T16:27:51.088Z,32.00
2023-10-10T16:30:18.128Z,31.80
2023-10-10T16:32:45.608Z,36.10
2023-10-10T16:35:12.739Z,35.75
2023-10-10T16:37:39.443Z,33.33
2023-10-10T16:40:07.168Z,31.73
2023-10-10T16:42:34.187Z,32.28
2023-10-10T16:45:02.264Z,37.35
2023-10-10T16:47:28.912Z,48.22
2023-10-10T16:49:56.259Z,37.17
2023-10-10T16:52:27.249Z,43.90
2023-10-10T16:54:54.885Z,41.97
2023-10-10T16:57:24.479Z,49.03
2023-10-10T16:59:52.415Z,42.53
2023-10-10T17:02:18.881Z,37.40
2023-10-10T17:04:45.398Z,35.95
2023-10-10T17:07:14.854Z,40.33
2023-10-10T17:09:41.458Z,36.85
2023-10-10T17:12:08.279Z,38.38
2023-10-10T17:14:38.466Z,43.25
2023-10-10T17:17:05.149Z,42.08
2023-10-10T17:19:36.663Z,43.50
2023-10-10T17:22:03.629Z,46.13
2023-10-10T17:24:30.146Z,45.60
2023-10-10T17:26:56.598Z,42.22
2023-10-10T17:29:27.638Z,47.08
2023-10-10T17:31:54.195Z,47.30
2023-10-10T17:34:23.047Z,43.17
2023-10-10T17:36:51.345Z,45.80
2023-10-10T17:39:18.159Z,45.10
2023-10-10T17:41:48.789Z,55.17
2023-10-10T17:44:17.974Z,48.90
2023-10-10T17:46:44.731Z,46.60
2023-10-10T17:49:11.176Z,50.90
2023-10-10T17:51:37.660Z,50.05
2023-10-10T17:54:05.663Z,63.55
2023-10-10T17:56:32.816Z,59.45
2023-10-10T17:59:01.466Z,59.38
2023-10-10T18:01:29.880Z,61.00
2023-10-10T18:03:57.048Z,71.13
2023-10-10T18:06:25.531Z,57.30
2023-10-10T18:08:54.102Z,56.83
2023-10-10T18:11:20.940Z,66.63
2023-10-10T18:13:50.822Z,60.65
2023-10-10T18:16:22.329Z,62.38
2023-10-10T18:18:51.351Z,61.45
2023-10-10T18:21:20.652Z,67.22
2023-10-10T18:23:47.689Z,66.50
2023-10-10T18:26:23.376Z,63.65
2023-10-10T18:28:52.924Z,64.82
2023-10-10T18:31:31.430Z,66.45
2023-10-10T18:33:58.295Z,67.55
2023-10-10T18:36:25.190Z,67.78
2023-10-10T18:38:57.937Z,68.55
2023-10-10T18:41:25.231Z,71.03
2023-10-10T18:43:53.048Z,69.32
2023-10-10T18:46:19.794Z,67.72
2023-10-10T18:48:46.917Z,68.90
2023-10-10T18:51:19.106Z,71.22
2023-10-10T18:53:46.455Z,65.25
2023-10-10T18:56:13.105Z,69.00
2023-10-10T18:58:39.863Z,75.47
2023-10-10T19:01:13.736Z,67.22
2023-10-10T19:03:49.461Z,78.60
2023-10-10T19:06:19.010Z,66.55
2023-10-10T19:08:46.571Z,79.18
2023-10-10T19:11:14.769Z,77.25
2023-10-10T19:13:46.789Z,72.35
2023-10-10T19:16:13.753Z,70.72
2023-10-10T19:18:40.314Z,76.50
2023-10-10T19:21:16.022Z,69.60
2023-10-10T19:23:48.546Z,66.85
2023-10-10T19:26:15.711Z,66.30
2023-10-10T19:28:44.624Z,67.43
2023-10-10T19:31:11.316Z,70.45
2023-10-10T19:33:37.996Z,70.80
2023-10-10T19:36:04.722Z,74.82
2023-10-10T19:38:33.035Z,67.30
2023-10-10T19:41:07.416Z,77.10
2023-10-10T19:43:37.606Z,67.25
2023-10-10T19:46:05.711Z,67.30
2023-10-10T19:48:32.318Z,75.88
2023-10-10T19:51:00.984Z,63.67
2023-10-10T19:53:30.020Z,75.25
2023-10-10T19:55:56.664Z,80.55
2023-10-10T19:58:23.082Z,69.85
2023-10-10T20:00:49.890Z,78.13
2023-10-10T20:03:19.289Z,66.47
2023-10-10T20:05:46.088Z,71.63
2023-10-10T20:08:18.489Z,64.22
2023-10-10T20:10:48.937Z,63.85
2023-10-10T20:13:21.504Z,60.45
2023-10-10T20:15:47.951Z,68.10
2023-10-10T20:18:14.492Z,64.97
2023-10-10T20:20:41.479Z,66.22
2023-10-10T20:23:09.358Z,59.13
2023-10-10T20:25:40.701Z,63.95
2023-10-10T20:28:08.646Z,57.75
2023-10-10T20:30:38.108Z,61.38
2023-10-10T20:33:06.109Z,58.17
2023-10-10T20:35:33.425Z,51.40
2023-10-10T20:38:06.911Z,51.65
2023-10-10T20:40:36.075Z,57.88
2023-10-10T20:43:05.594Z,48.20
2023-10-10T20:45:36.310Z,61.65
2023-10-10T20:48:09.426Z,61.55
2023-10-10T20:50:41.561Z,53.80
2023-10-10T20:53:08.774Z,51.28
2023-10-10T20:55:35.296Z,53.38
2023-10-10T20:58:01.746Z,51.97
2023-10-10T21:00:31.588Z,48.65
2023-10-10T21:03:06.732Z,52.97
2023-10-10T21:05:35.183Z,47.92
2023-10-10T21:08:02.805Z,46.65
2023-10-10T21:10:32.747Z,50.17
2023-10-10T21:12:59.331Z,48.67
2023-10-10T21:15:26.104Z,43.42
2023-10-10T21:17:54.384Z,43.42
2023-10-10T21:20:26.834Z,46.70
2023-10-10T21:22:54.954Z,41.40
2023-10-10T21:25:22.331Z,38.25
2023-10-10T21:27:58.309Z,37.20
2023-10-10T21:30:28.019Z,37.47
2023-10-10T21:32:58.819Z,34.50
2023-10-10T21:35:31.156Z,40.55
2023-10-10T21:38:03.066Z,37.40
2023-10-10T21:40:32.372Z,38.25
2023-10-10T21:42:58.813Z,38.22
2023-10-10T21:45:25.767Z,35.08
2023-10-10T21:47:58.199Z,32.00
2023-10-10T21:50:25.202Z,39.95
2023-10-10T21:52:52.282Z,39.03
2023-10-10T21:55:21.727Z,33.78
2023-10-10T21:57:52.936Z,34.07
2023-10-10T22:00:32.172Z,37.17
2023-10-10T22:03:05.059Z,29.95
2023-10-10T22:05:33.553Z,31.33
2023-10-10T22:08:00.743Z,32.63
2023-10-10T22:10:28.021Z,38.17
2023-10-10T22:12:55.889Z,27.27
2023-10-10T22:15:26.082Z,26.58
2023-10-10T22:17:58.222Z,23.48
2023-10-10T22:20:28.847Z,26.90
2023-10-10T22:22:55.434Z,32.60
2023-10-10T22:25:23.126Z,25.70
2023-10-10T22:27:52.497Z,33.80
2023-10-10T22:30:25.554Z,25.35
2023-10-10T22:32:54.476Z,29.67
2023-10-10T22:35:22.439Z,26.38
2023-10-10T22:37:53.311Z,25.45
2023-10-10T22:40:29.581Z,34.38
2023-10-10T22:43:02.183Z,26.40
2023-10-10T22:45:38.581Z,25.20
2023-10-10T22:48:08.974Z,25.23
2023-10-10T22:50:36.414Z,30.10
2023-10-10T22:53:05.815Z,22.83
2023-10-10T22:55:34.682Z,26.25
2023-10-10T22:58:07.353Z,32.90
2023-10-10T23:00:40.979Z,23.45
2023-10-10T23:03:13.692Z,23.52
2023-10-10T23:05:42.714Z,29.42
2023-10-10T23:08:09.869Z,20.75
2023-10-10T23:10:37.782Z,23.48
2023-10-10T23:13:04.377Z,21.60
2023-10-10T23:15:30.962Z,24.85
2023-10-10T23:17:59.862Z,19.38
2023-10-10T23:20:30.849Z,25.88
2023-10-10T23:23:07.625Z,21.80
2023-10-10T23:25:35.502Z,17.42
2023-10-10T23:28:04.765Z,23.42
2023-10-10T23:30:34.057Z,17.23
2023-10-10T23:33:01.624Z,21.47
2023-10-10T23:35:31.282Z,17.75
2023-10-10T23:38:06.199Z,28.45
2023-10-10T23:40:40.124Z,25.35
2023-10-10T23:43:08.418Z,18.48
2023-10-10T23:45:36.562Z,16.70
2023-10-10T23:48:03.678Z,22.83
2023-10-10T23:50:39.616Z,20.83
2023-10-10T23:53:09.435Z,19.38
2023-10-10T23:55:39.490Z,18.98
2023-10-10T23:58:07.864Z,14.65
